Time;durP1;ratioP1;P1;durP2;ratioP2;P2;SDS_P1;SDS_P2;PMS_P1;PMS_P2;Temp;Humidity;BMP_temperature;BMP_pressure;BME280_temperature;BME280_humidity;BME280_pressure;Samples;Min_cycle;Max_cycle;Signal;HPM_P1;HPM_P2
2021/05/12 00:00:27;;;;;;;;;;;;;;;24.43;33.91;99304.41;5324425;26;32346;-92
2021/05/12 00:02:55;;;;;;;;;;;;;;;24.56;33.42;99299.56;5305988;26;32689;-94
2021/05/12 00:05:38;;;;;;;;;;;;;;;24.11;34.29;99303.81;5310553;26;33320;-93
2021/05/12 00:08:07;;;;;;;;;;;;;;;24.32;33.97;99303.59;5305797;26;32786;-92
2021/05/12 00:10:34;;;;;;;;;;;;;;;24.51;33.78;99296.50;5305522;26;33664;-92
2021/05/12 00:13:02;;;;;;;;;;;;;;;24.17;34.46;99300.59;5284665;26;890921;-95
2021/05/12 00:15:31;;;;;;;;;;;;;;;24.13;34.65;99288.56;5297408;26;32963;-95
2021/05/12 00:17:59;;;;;;;;;;;;;;;23.62;35.57;99285.28;5305519;26;33234;-92
2021/05/12 00:20:28;;;;;;;;;;;;;;;23.50;35.43;99283.78;5305919;26;32524;-92
2021/05/12 00:23:41;;;;;;;;;;;;;;;23.89;34.44;99281.06;5307309;26;32903;-94
2021/05/12 00:25:53;;;;;;;;;;;;;;;24.23;33.92;99288.50;5339397;26;33655;-92
2021/05/12 00:28:21;;;;;;;;;;;;;;;24.24;33.84;99287.53;5305683;26;32977;-91
2021/05/12 00:30:49;;;;;;;;;;;;;;;23.70;34.75;99286.41;5305398;26;31915;-93
2021/05/12 00:33:23;;;;;;;;;;;;;;;23.88;34.53;99287.34;5307452;26;32910;-93
2021/05/12 00:35:51;;;;;;;;;;;;;;;23.26;35.91;99290.38;5305573;26;32956;-92
2021/05/12 00:38:19;;;;;;;;;;;;;;;23.30;36.05;99289.09;5305513;26;33060;-92
2021/05/12 00:40:50;;;;;;;;;;;;;;;23.47;35.88;99287.56;5323837;26;34070;-94
2021/05/12 00:43:17;;;;;;;;;;;;;;;23.27;36.28;99289.41;5305606;26;33180;-93
2021/05/12 00:45:48;;;;;;;;;;;;;;;23.36;35.99;99279.75;5306049;26;33765;-94
2021/05/12 00:48:16;;;;;;;;;;;;;;;23.00;36.52;99276.75;5305428;26;32788;-93
2021/05/12 00:50:46;;;;;;;;;;;;;;;23.49;35.60;99271.47;5306277;26;32088;-92
2021/05/12 00:53:14;;;;;;;;;;;;;;;23.60;35.21;99273.12;5305670;26;32753;-95
2021/05/12 00:55:42;;;;;;;;;;;;;;;23.04;36.44;99270.19;5305820;26;33457;-92
2021/05/12 00:58:09;;;;;;;;;;;;;;;22.76;36.97;99266.53;5305482;26;34329;-92
2021/05/12 01:00:38;;;;;;;;;;;;;;;22.38;37.72;99262.81;5305852;26;31825;-92
2021/05/12 01:03:08;;;;;;;;;;;;;;;22.41;37.61;99260.72;5306396;26;33026;-93
2021/05/12 01:05:37;;;;;;;;;;;;;;;22.44;37.82;99265.78;5306046;26;34084;-93
2021/05/12 01:08:04;;;;;;;;;;;;;;;21.84;39.02;99266.47;5324786;26;32536;-91
2021/05/12 01:10:33;;;;;;;;;;;;;;;22.32;38.07;99267.66;5306844;26;31913;-92
2021/05/12 01:13:03;;;;;;;;;;;;;;;22.56;37.50;99266.47;5306825;26;33230;-91
2021/05/12 01:15:31;;;;;;;;;;;;;;;23.00;36.53;99264.34;5325263;26;34985;-94
2021/05/12 01:18:09;;;;;;;;;;;;;;;22.14;38.24;99254.19;5306934;26;32679;-94
2021/05/12 01:20:46;;;;;;;;;;;;;;;21.70;39.20;99258.88;5324988;26;31856;-94
2021/05/12 01:23:15;;;;;;;;;;;;;;;21.81;38.96;99255.28;5324569;26;32841;-92
2021/05/12 01:25:43;;;;;;;;;;;;;;;22.18;38.03;99257.41;5306491;26;32727;-94
2021/05/12 01:28:11;;;;;;;;;;;;;;;22.02;38.47;99256.09;5306901;26;33015;-91
2021/05/12 01:30:40;;;;;;;;;;;;;;;22.55;37.33;99248.03;5306644;26;31816;-93
2021/05/12 01:33:08;;;;;;;;;;;;;;;22.12;38.28;99250.81;5324708;26;33025;-92
2021/05/12 01:35:40;;;;;;;;;;;;;;;21.67;39.19;99246.72;5307704;26;33085;-92
2021/05/12 01:38:07;;;;;;;;;;;;;;;22.27;37.76;99239.84;5306885;26;33093;-93
2021/05/12 01:40:35;;;;;;;;;;;;;;;22.26;37.51;99235.53;5306449;26;31963;-93
2021/05/12 01:43:05;;;;;;;;;;;;;;;22.86;36.35;99232.88;5339373;26;34885;-93
2021/05/12 01:45:32;;;;;;;;;;;;;;;22.55;37.00;99234.78;5321106;26;33900;-93
2021/05/12 01:48:03;;;;;;;;;;;;;;;22.97;36.12;99235.38;5320774;26;33830;-93
2021/05/12 01:50:32;;;;;;;;;;;;;;;22.56;36.82;99229.31;5311244;26;32123;-92
2021/05/12 01:53:01;;;;;;;;;;;;;;;23.12;35.66;99230.50;5329351;26;32827;-91
2021/05/12 01:55:29;;;;;;;;;;;;;;;23.04;35.62;99222.38;5309116;26;33363;-92
2021/05/12 01:57:57;;;;;;;;;;;;;;;23.27;35.19;99228.28;5306783;26;33750;-93
2021/05/12 02:00:29;;;;;;;;;;;;;;;23.00;35.51;99218.31;5306636;26;32033;-92
2021/05/12 02:02:58;;;;;;;;;;;;;;;23.13;35.48;99220.69;5306529;26;33908;-94
2021/05/12 02:05:28;;;;;;;;;;;;;;;22.45;36.75;99217.00;5306899;26;33012;-93
2021/05/12 02:07:56;;;;;;;;;;;;;;;23.21;35.29;99207.56;5306321;26;33107;-93
2021/05/12 02:10:24;;;;;;;;;;;;;;;22.50;36.63;99201.53;5306379;26;32341;-92
2021/05/12 02:12:54;;;;;;;;;;;;;;;22.07;37.43;99201.78;5306913;26;34074;-92
2021/05/12 02:15:38;;;;;;;;;;;;;;;22.36;36.80;99199.25;5311446;26;33142;-92
2021/05/12 02:18:06;;;;;;;;;;;;;;;21.95;37.57;99206.34;5306304;26;32381;-93
2021/05/12 02:20:34;;;;;;;;;;;;;;;22.21;36.92;99204.06;5306599;26;32994;-92
2021/05/12 02:23:04;;;;;;;;;;;;;;;22.47;36.16;99193.84;5306390;26;33107;-94
2021/05/12 02:25:32;;;;;;;;;;;;;;;22.70;35.83;99187.44;5306057;26;33004;-92
2021/05/12 02:27:59;;;;;;;;;;;;;;;22.84;35.47;99194.97;5306337;26;33266;-92
2021/05/12 02:30:28;;;;;;;;;;;;;;;22.81;35.44;99190.78;5306971;26;32085;-94
2021/05/12 02:32:57;;;;;;;;;;;;;;;23.05;34.76;99192.16;5307087;26;34291;-93
2021/05/12 02:35:25;;;;;;;;;;;;;;;23.25;34.29;99189.53;5306591;26;34012;-93
2021/05/12 02:37:53;;;;;;;;;;;;;;;23.70;33.40;99188.03;5306362;26;32879;-92
2021/05/12 02:40:22;;;;;;;;;;;;;;;22.28;36.14;99191.97;5307108;26;32013;-92
2021/05/12 02:42:51;;;;;;;;;;;;;;;22.11;36.30;99185.50;5324501;26;32790;-93
2021/05/12 02:45:27;;;;;;;;;;;;;;;21.52;37.67;99187.00;5309186;26;33524;-94
2021/05/12 02:47:57;;;;;;;;;;;;;;;21.63;37.53;99188.78;5307224;26;32846;-93
2021/05/12 02:50:26;;;;;;;;;;;;;;;22.03;36.51;99193.28;5306672;26;32098;-94
2021/05/12 02:52:54;;;;;;;;;;;;;;;22.54;35.51;99190.66;5306928;26;34078;-93
2021/05/12 02:55:23;;;;;;;;;;;;;;;21.81;36.85;99196.97;5306886;26;33059;-93
2021/05/12 02:57:51;;;;;;;;;;;;;;;21.37;37.78;99194.47;5306882;26;33452;-92
2021/05/12 03:00:20;;;;;;;;;;;;;;;21.01;38.57;99197.41;5308664;26;33198;-93
2021/05/12 03:02:48;;;;;;;;;;;;;;;21.54;37.26;99187.78;5308771;26;32865;-91
2021/05/12 03:05:16;;;;;;;;;;;;;;;21.74;37.20;99194.00;5326466;26;33988;-92
2021/05/12 03:07:49;;;;;;;;;;;;;;;21.72;37.19;99190.63;5326857;26;32738;-92
2021/05/12 03:10:19;;;;;;;;;;;;;;;22.08;36.39;99203.47;5308536;26;32918;-91
2021/05/12 03:12:49;;;;;;;;;;;;;;;22.21;35.85;99204.06;5307972;26;33662;-92
2021/05/12 03:15:19;;;;;;;;;;;;;;;22.34;35.62;99204.66;5311656;26;33433;-92
2021/05/12 03:17:49;;;;;;;;;;;;;;;22.25;35.50;99205.47;5308592;26;32378;-93
2021/05/12 03:20:21;;;;;;;;;;;;;;;22.40;34.97;99203.31;5309144;26;32081;-92
2021/05/12 03:22:52;;;;;;;;;;;;;;;22.56;34.42;99197.47;5308676;26;32430;-94
2021/05/12 03:25:20;;;;;;;;;;;;;;;22.83;34.02;99198.63;5307027;26;33118;-92
2021/05/12 03:27:48;;;;;;;;;;;;;;;22.78;34.20;99199.03;5306584;26;32883;-93
2021/05/12 03:30:25;;;;;;;;;;;;;;;22.56;34.62;99202.78;5306867;26;32613;-92
2021/05/12 03:32:53;;;;;;;;;;;;;;;22.42;35.04;99200.53;5306571;26;32899;-93
2021/05/12 03:35:21;;;;;;;;;;;;;;;23.09;33.78;99201.53;5306933;26;33718;-92
2021/05/12 03:37:49;;;;;;;;;;;;;;;22.46;34.87;99197.47;5306526;26;32828;-93
2021/05/12 03:40:18;;;;;;;;;;;;;;;22.55;34.67;99201.13;5306630;26;32134;-93
2021/05/12 03:42:46;;;;;;;;;;;;;;;23.18;33.71;99198.06;5324275;26;32986;-92
2021/05/12 03:45:13;;;;;;;;;;;;;;;23.22;33.73;99203.94;5306439;26;34412;-94
2021/05/12 03:47:48;;;;;;;;;;;;;;;22.82;34.67;99197.78;5325520;26;33354;-93
2021/05/12 03:50:17;;;;;;;;;;;;;;;22.32;35.63;99189.84;5307609;26;31760;-93
2021/05/12 03:52:45;;;;;;;;;;;;;;;22.72;34.91;99190.78;5306780;26;33721;-92
2021/05/12 03:55:14;;;;;;;;;;;;;;;22.22;35.94;99184.53;5306251;26;33297;-94
2021/05/12 03:57:42;;;;;;;;;;;;;;;22.44;35.32;99182.66;5307975;26;32983;-93
2021/05/12 04:00:10;;;;;;;;;;;;;;;22.30;35.82;99183.88;5309587;26;32681;-92
2021/05/12 04:02:40;;;;;;;;;;;;;;;22.73;35.21;99180.03;5311628;26;32534;-92
2021/05/12 04:05:08;;;;;;;;;;;;;;;22.27;36.13;99186.78;5291410;26;32929;-92
2021/05/12 04:07:36;;;;;;;;;;;;;;;22.96;34.77;99188.56;5309427;26;32577;-92
2021/05/12 04:10:04;;;;;;;;;;;;;;;23.73;33.32;99179.75;5326623;26;31960;-94
2021/05/12 04:12:34;;;;;;;;;;;;;;;23.47;33.57;99185.72;5307916;26;32705;-94
2021/05/12 04:15:03;;;;;;;;;;;;;;;23.84;32.93;99187.56;5307426;26;33262;-94
2021/05/12 04:17:32;;;;;;;;;;;;;;;23.38;33.80;99194.56;5307221;26;33075;-91
2021/05/12 04:20:00;;;;;;;;;;;;;;;23.56;33.53;99187.50;5306560;26;33248;-93
2021/05/12 04:22:28;;;;;;;;;;;;;;;23.94;32.87;99192.84;5306211;26;33462;-95
2021/05/12 04:24:56;;;;;;;;;;;;;;;24.39;32.16;99191.22;5306290;26;33426;-93
2021/05/12 04:27:25;;;;;;;;;;;;;;;24.14;32.76;99188.28;5324351;26;32835;-92
2021/05/12 04:29:53;;;;;;;;;;;;;;;24.33;32.56;99197.97;5306245;26;32285;-93
2021/05/12 04:32:20;;;;;;;;;;;;;;;24.40;32.22;99188.41;5305704;26;32990;-93
2021/05/12 04:34:49;;;;;;;;;;;;;;;25.14;31.06;99174.94;5287639;26;33983;-93
2021/05/12 04:37:16;;;;;;;;;;;;;;;24.84;31.75;99174.38;5324053;26;33638;-91
2021/05/12 04:39:46;;;;;;;;;;;;;;;24.52;32.64;99189.03;5307426;26;32320;-92
2021/05/12 04:42:15;;;;;;;;;;;;;;;25.04;31.74;99179.53;5325111;26;33868;-91
2021/05/12 04:44:42;;;;;;;;;;;;;;;25.04;31.48;99175.03;5324016;26;33185;-88
2021/05/12 04:47:10;;;;;;;;;;;;;;;24.66;32.14;99177.03;5341210;26;34369;-89
2021/05/12 04:49:38;;;;;;;;;;;;;;;24.66;32.40;99185.87;5341496;26;32129;-88
2021/05/12 04:52:06;;;;;;;;;;;;;;;24.58;32.52;99192.91;5322885;26;32885;-89
2021/05/12 04:54:33;;;;;;;;;;;;;;;24.90;32.03;99187.06;5322585;26;33010;-88
2021/05/12 04:57:01;;;;;;;;;;;;;;;24.09;32.70;99190.53;5305040;26;32629;-89
2021/05/12 04:59:28;;;;;;;;;;;;;;;24.65;31.64;99186.00;5305569;26;33197;-88
2021/05/12 05:01:56;;;;;;;;;;;;;;;24.77;31.57;99173.28;5309946;26;33263;-88
2021/05/12 05:04:24;;;;;;;;;;;;;;;25.03;31.19;99176.03;5325553;26;34096;-88
2021/05/12 05:06:51;;;;;;;;;;;;;;;25.52;29.86;99172.06;5325209;26;32643;-89
2021/05/12 05:09:20;;;;;;;;;;;;;;;25.76;29.15;99182.03;5305049;26;32138;-88
2021/05/12 05:11:47;;;;;;;;;;;;;;;25.60;29.07;99180.94;5304645;26;33312;-88
2021/05/12 05:14:16;;;;;;;;;;;;;;;25.77;28.70;99173.84;5322751;26;34215;-87
2021/05/12 05:16:44;;;;;;;;;;;;;;;25.95;28.31;99178.25;5304566;26;32954;-87
2021/05/12 05:19:11;;;;;;;;;;;;;;;26.33;27.69;99171.59;5304473;26;32250;-87
2021/05/12 05:21:40;;;;;;;;;;;;;;;26.24;27.56;99171.72;5322583;26;34693;-88
2021/05/12 05:24:08;;;;;;;;;;;;;;;26.11;27.64;99166.84;5304701;26;32893;-88
2021/05/12 05:26:36;;;;;;;;;;;;;;;26.63;27.00;99163.13;5322941;26;33691;-89
2021/05/12 05:29:03;;;;;;;;;;;;;;;26.81;26.41;99165.69;5323088;26;34129;-90
2021/05/12 05:31:31;;;;;;;;;;;;;;;26.92;25.86;99157.31;5324277;26;33555;-89
2021/05/12 05:34:16;;;;;;;;;;;;;;;26.77;25.84;99159.00;5304515;26;34029;-87
2021/05/12 05:37:11;;;;;;;;;;;;;;;26.62;26.34;99151.59;5276184;26;34514;-89
2021/05/12 05:40:00;;;;;;;;;;;;;;;26.57;26.06;99161.94;5281929;26;33197;-86
2021/05/12 05:43:03;;;;;;;;;;;;;;;27.02;24.94;99153.63;5260963;27;34615;-87
2021/05/12 05:46:04;;;;;;;;;;;;;;;27.00;24.93;99154.66;5199511;27;33727;-88
2021/05/12 05:49:03;;;;;;;;;;;;;;;27.20;25.11;99164.97;5165338;27;34785;-87
2021/05/12 05:51:52;;;;;;;;;;;;;;;26.65;25.31;99161.94;5273536;26;32140;-89
2021/05/12 05:54:39;;;;;;;;;;;;;;;26.87;24.99;99162.34;5326031;26;34172;-91
2021/05/12 05:57:23;;;;;;;;;;;;;;;27.75;23.93;99160.72;5295930;26;34034;-86
2021/05/12 06:00:09;;;;;;;;;;;;;;;26.91;25.13;99166.34;5329830;26;33533;-87
2021/05/12 06:02:41;;;;;;;;;;;;;;;26.57;25.54;99164.63;5326794;26;34149;-87
2021/05/12 06:05:23;;;;;;;;;;;;;;;27.16;24.85;99166.31;5309915;26;33309;-89
2021/05/12 06:08:12;;;;;;;;;;;;;;;26.31;26.14;99162.91;5310580;26;32792;-89
2021/05/12 06:11:10;;;;;;;;;;;;;;;27.14;25.08;99160.31;5238028;26;33141;-90
2021/05/12 06:14:08;;;;;;;;;;;;;;;27.13;24.97;99159.47;5263827;27;33786;-88
2021/05/12 06:17:03;;;;;;;;;;;;;;;27.65;24.37;99155.53;5262892;26;33031;-88
2021/05/12 06:19:46;;;;;;;;;;;;;;;28.45;23.29;99153.69;5280822;26;33303;-87
2021/05/12 06:22:32;;;;;;;;;;;;;;;27.83;24.33;99162.53;5345230;26;33951;-89
2021/05/12 06:25:15;;;;;;;;;;;;;;;28.42;23.43;99161.25;5265221;26;32562;-89
2021/05/12 06:28:04;;;;;;;;;;;;;;;28.87;22.84;99153.41;5304566;26;34008;-86
2021/05/12 06:30:50;;;;;;;;;;;;;;;28.84;22.95;99159.97;5283782;26;33505;-87
2021/05/12 06:33:47;;;;;;;;;;;;;;;29.22;22.54;99154.59;5245269;26;33405;-88
2021/05/12 06:36:49;;;;;;;;;;;;;;;29.47;22.14;99159.75;5326227;26;32297;-89
2021/05/12 06:39:35;;;;;;;;;;;;;;;29.50;22.06;99159.38;5265462;26;34050;-88
2021/05/12 06:42:03;;;;;;;;;;;;;;;28.94;22.95;99167.75;5317722;26;34086;-87
2021/05/12 06:44:31;;;;;;;;;;;;;;;28.69;23.44;99170.63;5330035;26;32865;-88
2021/05/12 06:46:59;;;;;;;;;;;;;;;28.52;23.89;99169.03;5330957;26;33456;-87
2021/05/12 06:49:26;;;;;;;;;;;;;;;27.40;25.27;99170.81;5312240;26;33404;-89
2021/05/12 06:51:56;;;;;;;;;;;;;;;27.96;24.52;99170.84;5309003;26;33467;-86
2021/05/12 06:54:23;;;;;;;;;;;;;;;27.83;24.75;99178.59;5326538;26;32918;-86
2021/05/12 06:56:51;;;;;;;;;;;;;;;27.91;24.76;99185.72;5307873;26;32215;-86
2021/05/12 06:59:20;;;;;;;;;;;;;;;27.56;25.33;99185.19;5326927;26;34822;-86
2021/05/12 07:01:47;;;;;;;;;;;;;;;27.80;24.95;99186.94;5309212;26;33047;-87
2021/05/12 07:04:16;;;;;;;;;;;;;;;27.62;24.96;99184.50;5326811;26;32970;-86
2021/05/12 07:06:44;;;;;;;;;;;;;;;26.60;26.37;99192.84;5326670;26;33680;-87
2021/05/12 07:09:11;;;;;;;;;;;;;;;27.98;24.60;99192.91;5327045;26;33031;-87
2021/05/12 07:11:39;;;;;;;;;;;;;;;27.64;25.01;99190.50;5309486;26;33110;-87
2021/05/12 07:14:08;;;;;;;;;;;;;;;28.02;24.58;99187.25;5325785;26;32831;-87
2021/05/12 07:16:36;;;;;;;;;;;;;;;27.72;25.30;99190.50;5325959;26;33376;-87
2021/05/12 07:19:05;;;;;;;;;;;;;;;27.75;25.25;99183.94;5325864;26;35135;-87
2021/05/12 07:21:33;;;;;;;;;;;;;;;28.11;24.68;99180.84;5289635;26;32807;-86
2021/05/12 07:24:01;;;;;;;;;;;;;;;28.41;24.23;99183.69;5323655;26;34216;-87
2021/05/12 07:26:29;;;;;;;;;;;;;;;28.56;23.98;99181.06;5304370;26;33050;-87
2021/05/12 07:29:02;;;;;;;;;;;;;;;29.10;23.47;99175.66;5323201;26;34125;-87
2021/05/12 07:31:32;;;;;;;;;;;;;;;28.76;24.09;99187.69;5304980;26;34320;-87
2021/05/12 07:34:00;;;;;;;;;;;;;;;28.74;24.27;99187.00;5304128;26;33007;-87
2021/05/12 07:36:28;;;;;;;;;;;;;;;30.24;22.14;99179.97;5303545;26;33156;-86
2021/05/12 07:38:56;;;;;;;;;;;;;;;30.31;22.03;99177.34;5340499;26;34585;-86
2021/05/12 07:41:24;;;;;;;;;;;;;;;30.54;21.87;99169.19;5304140;26;33069;-86
2021/05/12 07:43:52;;;;;;;;;;;;;;;30.88;21.52;99173.00;5304387;26;32863;-86
2021/05/12 07:46:20;;;;;;;;;;;;;;;30.77;21.56;99171.66;5324512;26;33608;-84
2021/05/12 07:48:49;;;;;;;;;;;;;;;30.63;21.76;99165.34;5305126;26;33017;-86
2021/05/12 07:51:17;;;;;;;;;;;;;;;30.40;22.07;99159.28;5322201;26;33952;-85
2021/05/12 07:53:44;;;;;;;;;;;;;;;30.64;21.83;99160.78;5303971;26;32959;-86
2021/05/12 07:56:12;;;;;;;;;;;;;;;30.59;21.78;99155.97;5322076;26;33869;-88
2021/05/12 07:58:40;;;;;;;;;;;;;;;30.52;22.08;99156.94;5304049;26;32906;-85
2021/05/12 08:01:22;;;;;;;;;;;;;;;29.51;23.27;99153.00;5322124;26;34125;-85
2021/05/12 08:03:55;;;;;;;;;;;;;;;30.30;22.66;99151.50;5307055;26;32870;-85
2021/05/12 08:06:22;;;;;;;;;;;;;;;31.23;21.47;99146.22;5340338;26;33635;-86
2021/05/12 08:08:51;;;;;;;;;;;;;;;30.78;21.80;99142.91;5340287;26;33344;-86
2021/05/12 08:11:21;;;;;;;;;;;;;;;31.42;21.05;99130.38;5303820;26;35795;-86
2021/05/12 08:13:49;;;;;;;;;;;;;;;31.50;20.75;99122.16;5340226;26;33638;-85
2021/05/12 08:16:18;;;;;;;;;;;;;;;31.87;20.57;99117.37;5303933;26;32018;-86
2021/05/12 08:18:46;;;;;;;;;;;;;;;31.83;20.55;99124.22;5303983;26;33992;-86
2021/05/12 08:21:14;;;;;;;;;;;;;;;31.85;20.42;99129.38;5321675;26;34082;-85
2021/05/12 08:23:42;;;;;;;;;;;;;;;32.53;19.67;99125.84;5322019;26;33623;-85
2021/05/12 08:26:11;;;;;;;;;;;;;;;31.51;20.48;99126.47;5339910;26;33381;-88
2021/05/12 08:28:40;;;;;;;;;;;;;;;31.80;20.25;99127.28;5339823;26;33963;-85
2021/05/12 08:31:08;;;;;;;;;;;;;;;31.31;20.82;99129.91;5321752;26;32602;-86
2021/05/12 08:33:36;;;;;;;;;;;;;;;31.11;21.25;99129.78;5303871;26;32943;-85
2021/05/12 08:36:04;;;;;;;;;;;;;;;32.37;19.77;99135.16;5321635;26;32087;-85
2021/05/12 08:38:33;;;;;;;;;;;;;;;32.61;19.45;99133.75;5321480;26;34707;-86
2021/05/12 08:41:02;;;;;;;;;;;;;;;32.48;19.75;99139.94;5303722;26;34223;-86
2021/05/12 08:43:30;;;;;;;;;;;;;;;32.69;19.71;99135.41;5322200;26;33700;-86
2021/05/12 08:45:57;;;;;;;;;;;;;;;32.82;19.50;99134.63;5303645;26;33108;-86
2021/05/12 08:48:26;;;;;;;;;;;;;;;32.90;19.34;99132.53;5340597;26;33920;-86
2021/05/12 08:50:54;;;;;;;;;;;;;;;33.21;19.05;99139.13;5322049;26;33176;-87
2021/05/12 08:53:23;;;;;;;;;;;;;;;32.73;19.64;99142.06;5304160;26;32959;-85
2021/05/12 08:55:51;;;;;;;;;;;;;;;33.25;19.11;99132.34;5303641;26;32193;-87
2021/05/12 08:58:18;;;;;;;;;;;;;;;32.77;19.55;99127.13;5340515;26;34064;-90
2021/05/12 09:00:47;;;;;;;;;;;;;;;33.07;19.18;99108.66;5322528;26;33541;-88
2021/05/12 09:03:15;;;;;;;;;;;;;;;33.10;19.11;99115.50;5322613;26;32945;-88
2021/05/12 09:05:42;;;;;;;;;;;;;;;33.17;18.96;99105.50;5321931;26;32133;-87
2021/05/12 09:08:10;;;;;;;;;;;;;;;33.76;18.31;99105.59;5321864;26;33868;-86
2021/05/12 09:10:38;;;;;;;;;;;;;;;32.40;19.59;99105.09;5325171;26;33893;-86
2021/05/12 09:13:06;;;;;;;;;;;;;;;32.52;19.27;99108.84;5306150;26;33021;-87
2021/05/12 09:15:34;;;;;;;;;;;;;;;32.66;18.98;99108.87;5327034;26;33434;-87
2021/05/12 09:18:04;;;;;;;;;;;;;;;33.42;18.22;99097.59;5327384;26;33977;-87
2021/05/12 09:20:39;;;;;;;;;;;;;;;32.91;18.85;99107.22;5328818;26;34501;-85
2021/05/12 09:23:11;;;;;;;;;;;;;;;34.08;17.72;99095.69;5311903;26;32770;-87
2021/05/12 09:25:40;;;;;;;;;;;;;;;33.17;18.14;99093.91;5330429;26;32518;-87
2021/05/12 09:28:09;;;;;;;;;;;;;;;33.55;17.68;99091.34;5325535;26;34809;-88
2021/05/12 09:30:38;;;;;;;;;;;;;;;33.70;17.50;99082.97;5342001;26;34003;-87
2021/05/12 09:33:12;;;;;;;;;;;;;;;34.16;17.07;99072.13;5305900;26;32937;-87
2021/05/12 09:35:41;;;;;;;;;;;;;;;33.26;17.97;99077.28;5305229;26;32151;-87
2021/05/12 09:38:19;;;;;;;;;;;;;;;33.44;17.72;99082.03;5324353;26;32973;-87
2021/05/12 09:41:03;;;;;;;;;;;;;;;33.80;17.40;99079.84;5344855;26;35223;-87
2021/05/12 09:43:31;;;;;;;;;;;;;;;34.07;17.31;99085.91;5346103;26;34006;-87
2021/05/12 09:46:18;;;;;;;;;;;;;;;33.64;17.57;99086.53;5305174;26;32075;-87
2021/05/12 09:48:59;;;;;;;;;;;;;;;33.06;18.27;99092.69;5342286;26;33981;-88
2021/05/12 09:51:27;;;;;;;;;;;;;;;32.41;18.99;99096.81;5342532;26;33940;-88
2021/05/12 09:54:19;;;;;;;;;;;;;;;31.77;19.92;99108.84;5305654;26;32832;-87
2021/05/12 09:56:48;;;;;;;;;;;;;;;30.91;20.62;99107.25;5297008;26;31892;-87
2021/05/12 09:59:19;;;;;;;;;;;;;;;31.75;19.84;99102.81;5340925;26;34410;-87
2021/05/12 10:01:48;;;;;;;;;;;;;;;32.05;19.38;99108.72;5340557;26;34350;-87
2021/05/12 10:04:19;;;;;;;;;;;;;;;31.93;19.35;99118.44;5289027;26;32808;-87
2021/05/12 10:06:47;;;;;;;;;;;;;;;31.50;20.04;99110.53;5306450;26;33066;-87
2021/05/12 10:09:22;;;;;;;;;;;;;;;31.24;20.42;99110.19;5304578;26;33316;-87
2021/05/12 10:12:00;;;;;;;;;;;;;;;31.39;20.19;99106.53;5303708;26;33118;-86
2021/05/12 10:14:28;;;;;;;;;;;;;;;31.64;19.90;99106.91;5340758;26;33734;-86
2021/05/12 10:16:56;;;;;;;;;;;;;;;31.95;19.56;99106.41;5304505;26;33095;-88
2021/05/12 10:19:24;;;;;;;;;;;;;;;32.83;18.40;99110.13;5304250;26;34030;-88
2021/05/12 10:21:51;;;;;;;;;;;;;;;32.95;18.56;99104.94;5340906;26;33612;-88
2021/05/12 10:24:21;;;;;;;;;;;;;;;32.67;18.90;99110.50;5286450;26;33858;-88
2021/05/12 10:26:51;;;;;;;;;;;;;;;32.42;19.53;99097.66;5321951;26;33156;-88
2021/05/12 10:29:20;;;;;;;;;;;;;;;33.04;18.98;99095.59;5340951;26;34037;-88
2021/05/12 10:31:48;;;;;;;;;;;;;;;33.25;18.77;99099.94;5304367;26;33102;-89
2021/05/12 10:34:16;;;;;;;;;;;;;;;32.68;19.42;99109.47;5341917;26;32937;-88
2021/05/12 10:36:44;;;;;;;;;;;;;;;31.53;20.94;99091.31;5344333;26;33310;-89
2021/05/12 10:39:19;;;;;;;;;;;;;;;30.70;25.14;99097.34;5308148;26;33898;-91
2021/05/12 10:48:44;;;;;;;;;;;;;;;29.82;27.97;99099.09;5280270;27;32110;-87
2021/05/12 10:51:22;;;;;;;;;;;;;;;29.62;28.66;99109.59;5267024;27;33876;-88
2021/05/12 10:53:51;;;;;;;;;;;;;;;28.34;31.04;99119.28;5262226;27;33321;-88
2021/05/12 10:56:19;;;;;;;;;;;;;;;28.40;31.44;99118.56;5280468;27;34073;-87
2021/05/12 10:58:56;;;;;;;;;;;;;;;27.74;32.63;99118.91;5259945;27;32401;-86
2021/05/12 11:01:43;;;;;;;;;;;;;;;28.92;30.32;99108.97;5258583;27;33603;-87
2021/05/12 11:04:11;;;;;;;;;;;;;;;28.53;31.20;99117.13;5258522;27;34163;-88
2021/05/12 11:06:40;;;;;;;;;;;;;;;29.10;30.24;99110.47;5276125;27;34896;-87
2021/05/12 11:09:10;;;;;;;;;;;;;;;29.43;29.60;99104.78;5294639;27;32775;-88
2021/05/12 11:11:38;;;;;;;;;;;;;;;29.99;28.68;99094.34;5294379;27;33509;-87
2021/05/12 11:14:19;;;;;;;;;;;;;;;29.59;29.66;99101.06;5240866;27;32899;-87
2021/05/12 11:17:06;;;;;;;;;;;;;;;29.76;29.48;99101.72;5258860;27;33458;-87
2021/05/12 11:19:41;;;;;;;;;;;;;;;29.03;30.53;99093.47;5311532;26;33465;-89
2021/05/12 11:25:45;;;;;;;;;;;;;;;28.40;31.76;99102.50;5342846;26;34074;-89
2021/05/12 11:28:33;;;;;;;;;;;;;;;27.88;32.87;99082.53;5311924;26;32664;-87
2021/05/12 11:33:34;;;;;;;;;;;;;;;28.37;32.05;99075.22;5341543;26;34684;-89
2021/05/12 11:36:06;;;;;;;;;;;;;;;29.13;30.69;99083.28;5305257;26;33048;-87
2021/05/12 11:38:34;;;;;;;;;;;;;;;28.30;32.25;99080.47;5305681;26;33671;-87
2021/05/12 11:41:02;;;;;;;;;;;;;;;28.86;31.42;99058.75;5304454;26;31667;-86
2021/05/12 11:43:31;;;;;;;;;;;;;;;29.05;32.10;99049.34;5340514;26;33965;-87
2021/05/12 11:46:11;;;;;;;;;;;;;;;29.18;34.76;99054.06;5306000;26;34294;-89
2021/05/12 11:48:44;;;;;;;;;;;;;;;29.47;35.12;99053.22;5330559;26;33514;-87
2021/05/12 11:51:16;;;;;;;;;;;;;;;29.76;34.48;99064.13;5346613;26;32374;-90
2021/05/12 11:53:44;;;;;;;;;;;;;;;29.03;35.05;99082.72;5332807;26;33196;-90
2021/05/12 11:56:12;;;;;;;;;;;;;;;27.26;39.19;99102.00;5317707;26;33649;-88
2021/05/12 11:58:41;;;;;;;;;;;;;;;26.59;41.46;99114.56;5329157;26;34334;-89
2021/05/12 12:01:11;;;;;;;;;;;;;;;24.28;47.04;99120.41;5313648;26;32132;-87
2021/05/12 12:03:57;;;;;;;;;;;;;;;25.54;45.33;99111.38;5333022;26;33807;-86
2021/05/12 12:06:25;;;;;;;;;;;;;;;25.89;44.56;99121.06;5315733;26;34268;-88
2021/05/12 12:08:54;;;;;;;;;;;;;;;24.81;47.02;99132.03;5324341;26;34355;-89
2021/05/12 12:11:23;;;;;;;;;;;;;;;24.72;47.28;99117.84;5323439;26;30913;-87
2021/05/12 12:13:56;;;;;;;;;;;;;;;25.58;45.97;99123.41;5341052;26;33965;-87
2021/05/12 12:16:24;;;;;;;;;;;;;;;25.80;45.15;99117.50;5304111;26;32909;-88
2021/05/12 12:18:52;;;;;;;;;;;;;;;24.85;48.04;99106.78;5303589;26;33794;-89
2021/05/12 12:21:27;;;;;;;;;;;;;;;25.89;45.13;99104.22;5303816;26;31871;-89
2021/05/12 12:23:55;;;;;;;;;;;;;;;26.15;44.96;99113.00;5322298;26;33663;-88
2021/05/12 12:26:23;;;;;;;;;;;;;;;26.24;45.87;99113.81;5303326;26;33173;-88
2021/05/12 12:28:57;;;;;;;;;;;;;;;26.34;44.76;99105.69;5340470;26;34115;-86
2021/05/12 12:31:26;;;;;;;;;;;;;;;25.62;46.82;99096.28;5322000;26;32079;-88
2021/05/12 12:34:07;;;;;;;;;;;;;;;26.29;45.61;99092.81;5322085;26;33042;-87
2021/05/12 12:37:12;;;;;;;;;;;;;;;26.76;43.72;99090.53;5304014;26;34167;-87
2021/05/12 12:40:15;;;;;;;;;;;;;;;26.88;44.56;99083.00;5286892;26;33702;-87
2021/05/12 12:42:48;;;;;;;;;;;;;;;27.08;44.12;99075.44;5218771;27;33106;-87
2021/05/12 12:45:25;;;;;;;;;;;;;;;27.70;42.41;99065.91;5235256;27;32911;-89
2021/05/12 12:47:57;;;;;;;;;;;;;;;28.49;40.84;99057.72;5232730;27;33223;-88
2021/05/12 12:50:25;;;;;;;;;;;;;;;28.09;40.73;99065.03;5233202;27;33433;-86
2021/05/12 12:52:53;;;;;;;;;;;;;;;27.66;41.43;99060.91;5232472;27;32022;-81
2021/05/12 12:55:25;;;;;;;;;;;;;;;28.02;41.02;99072.13;5233150;27;32832;-84
2021/05/12 12:57:58;;;;;;;;;;;;;;;27.70;41.24;99080.13;5232757;27;34427;-86
2021/05/12 13:00:36;;;;;;;;;;;;;;;27.59;42.30;99072.47;5232487;27;33842;-85
2021/05/12 13:03:06;;;;;;;;;;;;;;;26.84;43.05;99063.78;5233730;27;33318;-86
2021/05/12 13:05:43;;;;;;;;;;;;;;;26.37;44.12;99061.78;5234175;27;33826;-87
2021/05/12 13:08:13;;;;;;;;;;;;;;;26.43;43.70;99061.09;5233830;27;33967;-86
2021/05/12 13:10:56;;;;;;;;;;;;;;;26.38;44.41;99063.44;5235812;27;33837;-87
2021/05/12 13:13:24;;;;;;;;;;;;;;;26.93;43.21;99060.09;5251125;27;33670;-86
2021/05/12 13:15:53;;;;;;;;;;;;;;;26.63;44.55;99059.78;5241930;26;34329;-86
2021/05/12 13:18:28;;;;;;;;;;;;;;;27.75;42.12;99047.47;5322873;26;34185;-86
2021/05/12 13:21:03;;;;;;;;;;;;;;;28.18;40.95;99055.13;5309645;26;34019;-86
2021/05/12 13:23:33;;;;;;;;;;;;;;;27.12;43.62;99058.06;5307534;26;32202;-86